sensor_id;sensor_type;location;lat;lon;timestamp;temperature;humidity
65040;HTU21D;51606;45.000;38.612;2022-09-29T05:24:53;28.42;59.96
65040;HTU21D;51606;45.000;38.612;2022-09-29T05:27:20;28.80;59.61
65040;HTU21D;51606;45.000;38.612;2022-09-29T05:29:47;28.92;59.95
65040;HTU21D;51606;45.000;38.612;2022-09-29T05:32:14;29.16;59.87
65040;HTU21D;51606;45.000;38.612;2022-09-29T05:34:41;29.34;59.93
65040;HTU21D;51606;45.000;38.612;2022-09-29T05:37:07;29.42;60.00
65040;HTU21D;51606;45.000;38.612;2022-09-29T05:39:34;29.53;60.12
65040;HTU21D;51606;45.000;38.612;2022-09-29T05:42:03;29.20;60.77
65040;HTU21D;51606;45.000;38.612;2022-09-29T05:44:32;28.57;62.15
65040;HTU21D;51606;45.000;38.612;2022-09-29T05:47:01;28.14;63.46
65040;HTU21D;51606;45.000;38.612;2022-09-29T05:49:27;28.38;63.15
65040;HTU21D;51606;45.000;38.612;2022-09-29T05:51:55;28.68;62.43
65040;HTU21D;51606;45.000;38.612;2022-09-29T05:54:22;28.74;62.28
65040;HTU21D;51606;45.000;38.612;2022-09-29T05:56:49;29.03;62.05
65040;HTU21D;51606;45.000;38.612;2022-09-29T05:59:15;29.53;61.20
65040;HTU21D;51606;45.000;38.612;2022-09-29T06:01:42;29.91;60.61
65040;HTU21D;51606;45.000;38.612;2022-09-29T06:04:08;30.31;59.96
65040;HTU21D;51606;45.000;38.612;2022-09-29T06:06:35;30.62;59.44
65040;HTU21D;51606;45.000;38.612;2022-09-29T06:09:01;30.86;59.30
65040;HTU21D;51606;45.000;38.612;2022-09-29T06:11:29;31.16;58.89
65040;HTU21D;51606;45.000;38.612;2022-09-29T06:14:00;31.33;58.48
65040;HTU21D;51606;45.000;38.612;2022-09-29T06:16:28;31.63;58.16
65040;HTU21D;51606;45.000;38.612;2022-09-29T06:18:55;31.92;57.85
65040;HTU21D;51606;45.000;38.612;2022-09-29T06:21:23;32.23;57.25
65040;HTU21D;51606;45.000;38.612;2022-09-29T06:23:52;32.49;56.84
65040;HTU21D;51606;45.000;38.612;2022-09-29T06:26:20;32.76;56.48
65040;HTU21D;51606;45.000;38.612;2022-09-29T06:28:47;33.00;56.40
65040;HTU21D;51606;45.000;38.612;2022-09-29T06:31:16;33.18;56.17
65040;HTU21D;51606;45.000;38.612;2022-09-29T06:33:43;33.46;55.90
65040;HTU21D;51606;45.000;38.612;2022-09-29T06:36:34;33.93;54.85
65040;HTU21D;51606;45.000;38.612;2022-09-29T06:39:20;34.26;54.88
65040;HTU21D;51606;45.000;38.612;2022-09-29T06:41:46;34.53;54.03
65040;HTU21D;51606;45.000;38.612;2022-09-29T06:44:21;34.82;53.57
65040;HTU21D;51606;45.000;38.612;2022-09-29T06:46:49;35.28;52.55
65040;HTU21D;51606;45.000;38.612;2022-09-29T06:49:16;35.85;51.33
65040;HTU21D;51606;45.000;38.612;2022-09-29T06:51:43;36.32;50.13
65040;HTU21D;51606;45.000;38.612;2022-09-29T06:54:11;37.04;48.60
65040;HTU21D;51606;45.000;38.612;2022-09-29T06:56:38;37.62;47.38
65040;HTU21D;51606;45.000;38.612;2022-09-29T06:59:05;38.12;46.12
65040;HTU21D;51606;45.000;38.612;2022-09-29T07:01:31;38.56;44.96
65040;HTU21D;51606;45.000;38.612;2022-09-29T07:03:58;38.90;44.19
65040;HTU21D;51606;45.000;38.612;2022-09-29T07:06:28;39.27;43.10
65040;HTU21D;51606;45.000;38.612;2022-09-29T07:08:56;39.42;42.55
65040;HTU21D;51606;45.000;38.612;2022-09-29T07:11:23;39.78;42.03
65040;HTU21D;51606;45.000;38.612;2022-09-29T07:13:51;40.29;41.14
65040;HTU21D;51606;45.000;38.612;2022-09-29T07:16:17;40.71;40.41
65040;HTU21D;51606;45.000;38.612;2022-09-29T07:18:44;40.91;39.83
65040;HTU21D;51606;45.000;38.612;2022-09-29T07:21:13;40.99;39.40
65040;HTU21D;51606;45.000;38.612;2022-09-29T07:23:45;41.21;38.66
65040;HTU21D;51606;45.000;38.612;2022-09-29T07:26:13;41.39;38.37
65040;HTU21D;51606;45.000;38.612;2022-09-29T07:28:41;41.57;37.90
65040;HTU21D;51606;45.000;38.612;2022-09-29T07:31:10;41.71;37.46
65040;HTU21D;51606;45.000;38.612;2022-09-29T07:33:37;41.78;37.30
65040;HTU21D;51606;45.000;38.612;2022-09-29T07:36:03;41.92;36.90
65040;HTU21D;51606;45.000;38.612;2022-09-29T07:38:31;42.09;36.34
65040;HTU21D;51606;45.000;38.612;2022-09-29T07:41:06;41.81;35.78
65040;HTU21D;51606;45.000;38.612;2022-09-29T07:43:33;41.41;36.28
65040;HTU21D;51606;45.000;38.612;2022-09-29T07:46:00;41.17;36.21
65040;HTU21D;51606;45.000;38.612;2022-09-29T07:48:27;41.03;36.24
65040;HTU21D;51606;45.000;38.612;2022-09-29T07:51:15;41.26;35.35
65040;HTU21D;51606;45.000;38.612;2022-09-29T07:53:42;41.57;35.31
65040;HTU21D;51606;45.000;38.612;2022-09-29T07:56:11;41.83;34.87
65040;HTU21D;51606;45.000;38.612;2022-09-29T07:58:39;41.94;34.61
65040;HTU21D;51606;45.000;38.612;2022-09-29T08:01:08;42.11;34.33
65040;HTU21D;51606;45.000;38.612;2022-09-29T08:03:38;42.26;34.07
65040;HTU21D;51606;45.000;38.612;2022-09-29T08:06:06;42.41;33.68
65040;HTU21D;51606;45.000;38.612;2022-09-29T08:08:37;42.46;33.18
65040;HTU21D;51606;45.000;38.612;2022-09-29T08:11:15;42.26;33.43
65040;HTU21D;51606;45.000;38.612;2022-09-29T08:13:42;42.16;33.43
65040;HTU21D;51606;45.000;38.612;2022-09-29T08:16:11;42.16;33.18
65040;HTU21D;51606;45.000;38.612;2022-09-29T08:18:38;42.07;33.17
65040;HTU21D;51606;45.000;38.612;2022-09-29T08:21:04;41.95;33.02
65040;HTU21D;51606;45.000;38.612;2022-09-29T08:23:39;41.98;32.58
65040;HTU21D;51606;45.000;38.612;2022-09-29T08:26:09;41.89;32.69
65040;HTU21D;51606;45.000;38.612;2022-09-29T08:28:37;41.84;32.67
65040;HTU21D;51606;45.000;38.612;2022-09-29T08:31:06;41.87;32.33
65040;HTU21D;51606;45.000;38.612;2022-09-29T08:33:33;41.71;32.55
65040;HTU21D;51606;45.000;38.612;2022-09-29T08:36:00;41.61;32.34
65040;HTU21D;51606;45.000;38.612;2022-09-29T08:38:30;41.35;32.52
65040;HTU21D;51606;45.000;38.612;2022-09-29T08:41:03;41.36;32.30
65040;HTU21D;51606;45.000;38.612;2022-09-29T08:43:33;41.27;32.37
65040;HTU21D;51606;45.000;38.612;2022-09-29T08:46:01;41.16;32.44
65040;HTU21D;51606;45.000;38.612;2022-09-29T08:48:37;40.99;32.38
65040;HTU21D;51606;45.000;38.612;2022-09-29T08:51:28;40.81;32.81
65040;HTU21D;51606;45.000;38.612;2022-09-29T08:54:01;40.84;32.70
65040;HTU21D;51606;45.000;38.612;2022-09-29T08:56:32;40.77;32.73
65040;HTU21D;51606;45.000;38.612;2022-09-29T08:58:59;40.60;32.80
65040;HTU21D;51606;45.000;38.612;2022-09-29T09:01:34;40.54;32.57
65040;HTU21D;51606;45.000;38.612;2022-09-29T09:07:02;40.23;32.80
65040;HTU21D;51606;45.000;38.612;2022-09-29T09:09:46;40.04;32.99
65040;HTU21D;51606;45.000;38.612;2022-09-29T09:12:30;0.00;34.25
65040;HTU21D;51606;45.000;38.612;2022-09-29T09:15:13;39.53;34.01
65040;HTU21D;51606;45.000;38.612;2022-09-29T09:20:44;39.25;33.90
65040;HTU21D;51606;45.000;38.612;2022-09-29T09:23:22;39.09;33.79
65040;HTU21D;51606;45.000;38.612;2022-09-29T09:25:54;38.90;34.12
65040;HTU21D;51606;45.000;38.612;2022-09-29T09:28:32;38.61;34.15
65040;HTU21D;51606;45.000;38.612;2022-09-29T09:36:10;37.90;34.31
65040;HTU21D;51606;45.000;38.612;2022-09-29T09:38:48;37.74;34.31
65040;HTU21D;51606;45.000;38.612;2022-09-29T09:41:19;37.37;34.31
65040;HTU21D;51606;45.000;38.612;2022-09-29T09:43:50;36.77;34.25
65040;HTU21D;51606;45.000;38.612;2022-09-29T09:46:55;35.75;34.79
65040;HTU21D;51606;45.000;38.612;2022-09-29T09:49:31;34.99;35.35
65040;HTU21D;51606;45.000;38.612;2022-09-29T09:52:46;34.36;35.78
65040;HTU21D;51606;45.000;38.612;2022-09-29T09:55:18;33.77;36.21
65040;HTU21D;51606;45.000;38.612;2022-09-29T10:00:56;32.64;37.10
65040;HTU21D;51606;45.000;38.612;2022-09-29T10:03:23;32.25;37.39
65040;HTU21D;51606;45.000;38.612;2022-09-29T10:05:50;32.00;37.63
65040;HTU21D;51606;45.000;38.612;2022-09-29T10:08:28;31.76;37.91
65040;HTU21D;51606;45.000;38.612;2022-09-29T10:10:57;31.50;37.98
65040;HTU21D;51606;45.000;38.612;2022-09-29T10:13:25;31.23;38.20
65040;HTU21D;51606;45.000;38.612;2022-09-29T10:16:04;30.98;38.37
65040;HTU21D;51606;45.000;38.612;2022-09-29T10:18:40;30.69;38.74
65040;HTU21D;51606;45.000;38.612;2022-09-29T10:21:21;30.57;38.99
65040;HTU21D;51606;45.000;38.612;2022-09-29T10:23:53;30.52;39.13
65040;HTU21D;51606;45.000;38.612;2022-09-29T10:28:55;30.44;39.13
65040;HTU21D;51606;45.000;38.612;2022-09-29T10:31:33;30.42;39.30
65040;HTU21D;51606;45.000;38.612;2022-09-29T10:34:15;30.44;39.41
65040;HTU21D;51606;45.000;38.612;2022-09-29T10:36:52;30.36;39.46
65040;HTU21D;51606;45.000;38.612;2022-09-29T10:39:31;30.30;39.71
65040;HTU21D;51606;45.000;38.612;2022-09-29T10:47:32;29.59;40.72
65040;HTU21D;51606;45.000;38.612;2022-09-29T10:50:31;29.52;41.04
65040;HTU21D;51606;45.000;38.612;2022-09-29T10:53:02;29.46;41.13
65040;HTU21D;51606;45.000;38.612;2022-09-29T10:55:47;29.38;41.24
65040;HTU21D;51606;45.000;38.612;2022-09-29T11:01:10;29.50;41.07
65040;HTU21D;51606;45.000;38.612;2022-09-29T11:06:27;29.37;41.71
65040;HTU21D;51606;45.000;38.612;2022-09-29T11:14:24;29.38;41.78
65040;HTU21D;51606;45.000;38.612;2022-09-29T11:19:40;29.13;42.13
65040;HTU21D;51606;45.000;38.612;2022-09-29T11:22:13;28.98;42.45
65040;HTU21D;51606;45.000;38.612;2022-09-29T11:25:07;28.84;42.84
65040;HTU21D;51606;45.000;38.612;2022-09-29T11:33:41;28.43;43.40
65040;HTU21D;51606;45.000;38.612;2022-09-29T11:39:43;28.91;42.93
65040;HTU21D;51606;45.000;38.612;2022-09-29T11:42:37;29.02;42.82
65040;HTU21D;51606;45.000;38.612;2022-09-29T11:45:09;29.16;42.75
65040;HTU21D;51606;45.000;38.612;2022-09-29T11:48:21;29.38;42.67
65040;HTU21D;51606;45.000;38.612;2022-09-29T11:51:00;29.51;42.50
65040;HTU21D;51606;45.000;38.612;2022-09-29T11:53:49;29.60;42.43
65040;HTU21D;51606;45.000;38.612;2022-09-29T12:11:00;29.26;43.14
65040;HTU21D;51606;45.000;38.612;2022-09-29T12:16:23;28.98;43.42
65040;HTU21D;51606;45.000;38.612;2022-09-29T12:21:54;28.77;43.60
65040;HTU21D;51606;45.000;38.612;2022-09-29T12:24:36;28.63;43.73
65040;HTU21D;51606;45.000;38.612;2022-09-29T12:27:07;28.45;44.03
65040;HTU21D;51606;45.000;38.612;2022-09-29T12:29:55;28.34;44.27
65040;HTU21D;51606;45.000;38.612;2022-09-29T12:32:38;28.14;44.62
65040;HTU21D;51606;45.000;38.612;2022-09-29T12:38:19;28.06;44.72
65040;HTU21D;51606;45.000;38.612;2022-09-29T12:41:04;28.10;44.68
65040;HTU21D;51606;45.000;38.612;2022-09-29T12:52:18;27.82;45.11
65040;HTU21D;51606;45.000;38.612;2022-09-29T12:54:52;27.73;45.29
65040;HTU21D;51606;45.000;38.612;2022-09-29T12:57:34;27.65;45.22
65040;HTU21D;51606;45.000;38.612;2022-09-29T13:11:13;27.06;46.16
65040;HTU21D;51606;45.000;38.612;2022-09-29T13:22:46;26.68;46.67
65040;HTU21D;51606;45.000;38.612;2022-09-29T13:25:40;26.63;46.76
65040;HTU21D;51606;45.000;38.612;2022-09-29T13:31:13;26.67;46.80
65040;HTU21D;51606;45.000;38.612;2022-09-29T13:33:46;26.71;46.81
65040;HTU21D;51606;45.000;38.612;2022-09-29T13:36:27;26.72;46.79
65040;HTU21D;51606;45.000;38.612;2022-09-29T13:38:58;26.67;46.92
65040;HTU21D;51606;45.000;38.612;2022-09-29T13:46:53;26.28;47.47
65040;HTU21D;51606;45.000;38.612;2022-09-29T13:51:52;26.16;47.88
65040;HTU21D;51606;45.000;38.612;2022-09-29T14:00:10;25.96;48.08
65040;HTU21D;51606;45.000;38.612;2022-09-29T14:02:45;25.89;48.18
65040;HTU21D;51606;45.000;38.612;2022-09-29T14:15:42;25.43;49.31
65040;HTU21D;51606;45.000;38.612;2022-09-29T14:18:32;25.33;49.52
65040;HTU21D;51606;45.000;38.612;2022-09-29T14:21:05;25.24;49.66
65040;HTU21D;51606;45.000;38.612;2022-09-29T14:26:49;25.14;49.94
65040;HTU21D;51606;45.000;38.612;2022-09-29T14:29:21;25.02;50.18
65040;HTU21D;51606;45.000;38.612;2022-09-29T14:31:52;24.87;50.43
65040;HTU21D;51606;45.000;38.612;2022-09-29T14:34:21;24.73;50.70
65040;HTU21D;51606;45.000;38.612;2022-09-29T14:36:53;24.58;51.04
65040;HTU21D;51606;45.000;38.612;2022-09-29T14:39:21;24.41;51.28
65040;HTU21D;51606;45.000;38.612;2022-09-29T14:41:49;24.24;51.60
65040;HTU21D;51606;45.000;38.612;2022-09-29T14:44:28;24.09;52.00
65040;HTU21D;51606;45.000;38.612;2022-09-29T14:50:31;23.71;52.56
65040;HTU21D;51606;45.000;38.612;2022-09-29T14:57:06;23.32;53.13
65040;HTU21D;51606;45.000;38.612;2022-09-29T14:59:38;23.13;53.40
65040;HTU21D;51606;45.000;38.612;2022-09-29T15:04:45;22.78;53.91
65040;HTU21D;51606;45.000;38.612;2022-09-29T15:07:21;22.64;54.36
65040;HTU21D;51606;45.000;38.612;2022-09-29T15:09:57;22.48;54.61
65040;HTU21D;51606;45.000;38.612;2022-09-29T15:12:29;22.29;54.84
65040;HTU21D;51606;45.000;38.612;2022-09-29T15:14:57;22.14;55.04
65040;HTU21D;51606;45.000;38.612;2022-09-29T15:17:40;22.03;55.38
65040;HTU21D;51606;45.000;38.612;2022-09-29T15:20:21;21.87;55.63
65040;HTU21D;51606;45.000;38.612;2022-09-29T15:25:54;21.54;55.97
65040;HTU21D;51606;45.000;38.612;2022-09-29T15:30:52;21.31;56.37
65040;HTU21D;51606;45.000;38.612;2022-09-29T15:33:26;21.22;56.67
65040;HTU21D;51606;45.000;38.612;2022-09-29T15:36:03;21.14;56.88
65040;HTU21D;51606;45.000;38.612;2022-09-29T15:41:21;20.92;57.00
65040;HTU21D;51606;45.000;38.612;2022-09-29T15:44:14;20.84;57.40
65040;HTU21D;51606;45.000;38.612;2022-09-29T15:46:50;20.72;57.46
65040;HTU21D;51606;45.000;38.612;2022-09-29T15:49:28;20.62;57.69
65040;HTU21D;51606;45.000;38.612;2022-09-29T15:52:13;20.51;57.84
65040;HTU21D;51606;45.000;38.612;2022-09-29T15:54:45;20.40;57.86
65040;HTU21D;51606;45.000;38.612;2022-09-29T15:58:01;20.29;58.22
65040;HTU21D;51606;45.000;38.612;2022-09-29T16:09:34;19.85;58.74
65040;HTU21D;51606;45.000;38.612;2022-09-29T16:12:05;19.80;59.06
65040;HTU21D;51606;45.000;38.612;2022-09-29T16:14:32;19.70;59.12
65040;HTU21D;51606;45.000;38.612;2022-09-29T16:17:31;19.63;59.32
65040;HTU21D;51606;45.000;38.612;2022-09-29T16:20:01;19.54;59.44
65040;HTU21D;51606;45.000;38.612;2022-09-29T16:23:06;19.46;59.51
65040;HTU21D;51606;45.000;38.612;2022-09-29T16:25:34;19.37;59.60
65040;HTU21D;51606;45.000;38.612;2022-09-29T16:28:01;19.30;59.83
65040;HTU21D;51606;45.000;38.612;2022-09-29T16:30:35;19.25;59.99
65040;HTU21D;51606;45.000;38.612;2022-09-29T16:33:15;19.20;60.28
65040;HTU21D;51606;45.000;38.612;2022-09-29T16:38:43;19.05;60.49
65040;HTU21D;51606;45.000;38.612;2022-09-29T16:41:29;18.97;60.67
65040;HTU21D;51606;45.000;38.612;2022-09-29T16:44:17;18.89;60.80
65040;HTU21D;51606;45.000;38.612;2022-09-29T16:49:23;18.77;61.13
65040;HTU21D;51606;45.000;38.612;2022-09-29T16:51:56;18.70;61.09
65040;HTU21D;51606;45.000;38.612;2022-09-29T16:54:30;18.67;61.32
65040;HTU21D;51606;45.000;38.612;2022-09-29T16:59:36;18.55;61.46
65040;HTU21D;51606;45.000;38.612;2022-09-29T17:02:16;18.52;61.79
65040;HTU21D;51606;45.000;38.612;2022-09-29T17:04:44;18.47;61.76
65040;HTU21D;51606;45.000;38.612;2022-09-29T17:07:28;18.44;62.15
65040;HTU21D;51606;45.000;38.612;2022-09-29T17:09:57;18.37;62.08
65040;HTU21D;51606;45.000;38.612;2022-09-29T17:12:28;18.33;62.31
65040;HTU21D;51606;45.000;38.612;2022-09-29T17:14:57;18.26;62.38
65040;HTU21D;51606;45.000;38.612;2022-09-29T17:20:40;18.17;62.28
65040;HTU21D;51606;45.000;38.612;2022-09-29T17:23:09;18.13;62.64
65040;HTU21D;51606;45.000;38.612;2022-09-29T17:25:44;18.08;62.86
65040;HTU21D;51606;45.000;38.612;2022-09-29T17:28:20;18.05;62.98
65040;HTU21D;51606;45.000;38.612;2022-09-29T17:33:55;17.92;63.15
65040;HTU21D;51606;45.000;38.612;2022-09-29T17:36:22;17.85;63.28
65040;HTU21D;51606;45.000;38.612;2022-09-29T17:38:50;17.80;63.53
65040;HTU21D;51606;45.000;38.612;2022-09-29T17:41:19;17.76;63.72
65040;HTU21D;51606;45.000;38.612;2022-09-29T17:43:46;17.72;63.88
65040;HTU21D;51606;45.000;38.612;2022-09-29T17:46:14;17.65;64.10
65040;HTU21D;51606;45.000;38.612;2022-09-29T17:48:40;17.61;64.29
65040;HTU21D;51606;45.000;38.612;2022-09-29T17:51:16;17.54;64.77
65040;HTU21D;51606;45.000;38.612;2022-09-29T17:53:43;17.45;64.67
65040;HTU21D;51606;45.000;38.612;2022-09-29T17:56:27;17.40;65.05
65040;HTU21D;51606;45.000;38.612;2022-09-29T17:59:00;17.31;64.85
65040;HTU21D;51606;45.000;38.612;2022-09-29T18:01:59;17.26;65.11
65040;HTU21D;51606;45.000;38.612;2022-09-29T18:04:28;17.21;64.99
65040;HTU21D;51606;45.000;38.612;2022-09-29T18:06:54;17.15;65.11
65040;HTU21D;51606;45.000;38.612;2022-09-29T18:09:21;17.07;65.23
65040;HTU21D;51606;45.000;38.612;2022-09-29T18:11:50;16.98;65.45
65040;HTU21D;51606;45.000;38.612;2022-09-29T18:14:16;16.88;65.63
65040;HTU21D;51606;45.000;38.612;2022-09-29T18:17:17;16.73;66.01
65040;HTU21D;51606;45.000;38.612;2022-09-29T18:19:44;16.61;66.07
65040;HTU21D;51606;45.000;38.612;2022-09-29T18:22:13;16.54;66.30
65040;HTU21D;51606;45.000;38.612;2022-09-29T18:24:40;16.55;66.32
65040;HTU21D;51606;45.000;38.612;2022-09-29T18:27:07;16.50;66.31
